Lloydminster Airport
CYLL : now visible

Airfield :











YOU CAN JOIN US ON...

 
LOGIN :

Register | Disclaimer

   EN    FR    IT 

 









Legend :    VFR   Marginal VFR   IFR   Intensive IFR   Very Intensive IFR
Visi :
Ceiling :
>= 8 km
>= 3000ft
5 to 8 km
1000 to 3000 ft
1500m to 5 km
500 to 1000 ft
800 to 1500m
200 to 500 ft
< 800m
< 200 ft
Symbols :   Thunderstorms  Fog  Heavy snow  Heavy precipitations  Wind > 20 kt






- Airport Elevation : 2193 ft
- IATA code : YLL


CYLL - Lloydminster

CURRENT METAR :
  • 170300Z 31006KT 15SM SCT170 BKN260 M15/M18 A2986 RMK AC3CI2 SLP168

EXPIRED METARs :
  • 170200Z 32008KT 15SM FEW020 BKN170 BKN260 M14/M18 A2984 RMK SC2AC3CI1 SLP163
  • 170100Z 31010KT 15SM SCT019 BKN110 BKN220 M13/M16 A2981 RMK SC3AC2CI1 SLP153

TAF TAF CYLL
Valid from the 17 at 00:00 until the 17 at 12:00 UTC


162338Z 1700/1712 32008KT P6SM SCT020 BKN120
TEMPO 1700/1706 4SM -SN BR BKN020 OVC080
FM170600 32006KT P6SM SCT020 OVC040
TEMPO 1706/1712 21/2SM -SN OVC020 RMK NXT FCST BY 170600Z



MET'MAP, your aeronautical weather chart ! - Copyright ORBIFLY December 2007 - Disclaimer

ORBIFLY MET'MAP TEAM :

Programming & Development : Alexandra Zaïnal
Concept & original design : Baudouin d'Aumeries
Assistance for programming : Marc-Olivier Méhu
Technical & hardware support : Manuel Goepfert

Contact : metmap@orbifly.com




SOURCES & CREDITS :

   NOAA       Earth
Advisory